sensor_id;sensor_type;location;lat;lon;timestamp;temperature;humidity
79356;SHT31;68825;51.978;5.654;2023-11-21T00:00:15;11.2;74.1
79356;SHT31;68825;51.978;5.654;2023-11-21T00:02:44;11.2;74.1
79356;SHT31;68825;51.978;5.654;2023-11-21T00:05:14;11.1;74.0
79356;SHT31;68825;51.978;5.654;2023-11-21T00:07:43;11.1;73.8
79356;SHT31;68825;51.978;5.654;2023-11-21T00:10:12;11.1;74.1
79356;SHT31;68825;51.978;5.654;2023-11-21T00:12:42;11.1;74.2
79356;SHT31;68825;51.978;5.654;2023-11-21T00:15:11;11.0;74.0
79356;SHT31;68825;51.978;5.654;2023-11-21T00:17:41;11.0;74.0
79356;SHT31;68825;51.978;5.654;2023-11-21T00:20:10;11.0;74.1
79356;SHT31;68825;51.978;5.654;2023-11-21T00:22:40;11.0;74.2
79356;SHT31;68825;51.978;5.654;2023-11-21T00:25:09;11.0;74.2
79356;SHT31;68825;51.978;5.654;2023-11-21T00:27:38;10.9;74.2
79356;SHT31;68825;51.978;5.654;2023-11-21T00:30:07;10.9;74.2
79356;SHT31;68825;51.978;5.654;2023-11-21T00:32:37;10.9;73.9
79356;SHT31;68825;51.978;5.654;2023-11-21T00:35:09;10.9;73.9
79356;SHT31;68825;51.978;5.654;2023-11-21T00:37:39;10.9;74.0
79356;SHT31;68825;51.978;5.654;2023-11-21T00:40:12;10.9;74.2
79356;SHT31;68825;51.978;5.654;2023-11-21T00:42:45;10.9;74.2
79356;SHT31;68825;51.978;5.654;2023-11-21T00:45:16;10.8;74.1
79356;SHT31;68825;51.978;5.654;2023-11-21T00:47:45;10.8;74.0
79356;SHT31;68825;51.978;5.654;2023-11-21T00:50:13;10.8;73.6
79356;SHT31;68825;51.978;5.654;2023-11-21T00:52:42;10.8;73.9
79356;SHT31;68825;51.978;5.654;2023-11-21T00:55:11;10.7;73.8
79356;SHT31;68825;51.978;5.654;2023-11-21T00:57:39;10.7;73.7
79356;SHT31;68825;51.978;5.654;2023-11-21T01:00:09;10.7;73.8
79356;SHT31;68825;51.978;5.654;2023-11-21T01:02:40;10.7;73.7
79356;SHT31;68825;51.978;5.654;2023-11-21T01:05:12;10.6;73.7
79356;SHT31;68825;51.978;5.654;2023-11-21T01:07:40;10.6;73.6
79356;SHT31;68825;51.978;5.654;2023-11-21T01:10:09;10.6;74.1
79356;SHT31;68825;51.978;5.654;2023-11-21T01:12:39;10.6;73.9
79356;SHT31;68825;51.978;5.654;2023-11-21T01:15:09;10.6;74.5
79356;SHT31;68825;51.978;5.654;2023-11-21T01:17:38;10.5;74.4
79356;SHT31;68825;51.978;5.654;2023-11-21T01:20:08;10.5;74.6
79356;SHT31;68825;51.978;5.654;2023-11-21T01:22:39;10.5;74.8
79356;SHT31;68825;51.978;5.654;2023-11-21T01:25:09;10.5;74.8
79356;SHT31;68825;51.978;5.654;2023-11-21T01:27:37;10.5;74.9
79356;SHT31;68825;51.978;5.654;2023-11-21T01:30:06;10.5;75.1
79356;SHT31;68825;51.978;5.654;2023-11-21T01:32:37;10.6;75.5
79356;SHT31;68825;51.978;5.654;2023-11-21T01:35:06;10.6;74.9
79356;SHT31;68825;51.978;5.654;2023-11-21T01:37:36;10.6;75.1
79356;SHT31;68825;51.978;5.654;2023-11-21T01:40:07;10.6;75.3
79356;SHT31;68825;51.978;5.654;2023-11-21T01:42:39;10.6;75.4
79356;SHT31;68825;51.978;5.654;2023-11-21T01:45:10;10.6;75.5
79356;SHT31;68825;51.978;5.654;2023-11-21T01:47:42;10.6;75.8
79356;SHT31;68825;51.978;5.654;2023-11-21T01:50:17;10.6;75.6
79356;SHT31;68825;51.978;5.654;2023-11-21T01:52:48;10.6;75.3
79356;SHT31;68825;51.978;5.654;2023-11-21T01:55:18;10.6;75.3
79356;SHT31;68825;51.978;5.654;2023-11-21T01:57:48;10.6;75.2
79356;SHT31;68825;51.978;5.654;2023-11-21T02:00:17;10.6;75.1
79356;SHT31;68825;51.978;5.654;2023-11-21T02:02:48;10.6;74.5
79356;SHT31;68825;51.978;5.654;2023-11-21T02:05:18;10.6;74.7
79356;SHT31;68825;51.978;5.654;2023-11-21T02:07:48;10.6;74.7
79356;SHT31;68825;51.978;5.654;2023-11-21T02:10:18;10.6;74.9
79356;SHT31;68825;51.978;5.654;2023-11-21T02:12:49;10.6;75.0
79356;SHT31;68825;51.978;5.654;2023-11-21T02:15:19;10.6;74.7
79356;SHT31;68825;51.978;5.654;2023-11-21T02:17:50;10.6;74.9
79356;SHT31;68825;51.978;5.654;2023-11-21T02:20:21;10.6;74.8
79356;SHT31;68825;51.978;5.654;2023-11-21T02:22:52;10.6;74.9
79356;SHT31;68825;51.978;5.654;2023-11-21T02:25:24;10.6;74.9
79356;SHT31;68825;51.978;5.654;2023-11-21T02:27:54;10.6;75.0
79356;SHT31;68825;51.978;5.654;2023-11-21T02:30:23;10.6;75.4
79356;SHT31;68825;51.978;5.654;2023-11-21T02:32:54;10.6;75.6
79356;SHT31;68825;51.978;5.654;2023-11-21T02:35:25;10.6;75.8
79356;SHT31;68825;51.978;5.654;2023-11-21T02:37:54;10.6;75.9
79356;SHT31;68825;51.978;5.654;2023-11-21T02:40:23;10.6;75.8
79356;SHT31;68825;51.978;5.654;2023-11-21T02:42:53;10.6;75.8
79356;SHT31;68825;51.978;5.654;2023-11-21T02:45:24;10.6;76.0
79356;SHT31;68825;51.978;5.654;2023-11-21T02:47:52;10.6;75.9
79356;SHT31;68825;51.978;5.654;2023-11-21T02:50:23;10.7;75.8
79356;SHT31;68825;51.978;5.654;2023-11-21T02:52:53;10.7;75.9
79356;SHT31;68825;51.978;5.654;2023-11-21T02:55:24;10.7;76.1
79356;SHT31;68825;51.978;5.654;2023-11-21T02:57:53;10.7;75.6
79356;SHT31;68825;51.978;5.654;2023-11-21T03:00:22;10.7;75.8
79356;SHT31;68825;51.978;5.654;2023-11-21T03:02:53;10.7;76.0
79356;SHT31;68825;51.978;5.654;2023-11-21T03:05:22;10.8;75.9
79356;SHT31;68825;51.978;5.654;2023-11-21T03:07:50;10.8;76.0
79356;SHT31;68825;51.978;5.654;2023-11-21T03:10:19;10.8;75.9
79356;SHT31;68825;51.978;5.654;2023-11-21T03:12:48;10.8;75.6
79356;SHT31;68825;51.978;5.654;2023-11-21T03:15:16;10.8;75.4
79356;SHT31;68825;51.978;5.654;2023-11-21T03:17:45;10.8;75.5
79356;SHT31;68825;51.978;5.654;2023-11-21T03:20:15;10.8;75.5
79356;SHT31;68825;51.978;5.654;2023-11-21T03:22:44;10.8;75.3
79356;SHT31;68825;51.978;5.654;2023-11-21T03:25:13;10.8;75.8
79356;SHT31;68825;51.978;5.654;2023-11-21T03:27:43;10.8;75.8
79356;SHT31;68825;51.978;5.654;2023-11-21T03:30:12;10.8;76.0
79356;SHT31;68825;51.978;5.654;2023-11-21T03:32:41;10.8;76.1
79356;SHT31;68825;51.978;5.654;2023-11-21T03:35:11;10.9;76.3
79356;SHT31;68825;51.978;5.654;2023-11-21T03:37:39;10.9;76.1
79356;SHT31;68825;51.978;5.654;2023-11-21T03:40:10;10.9;76.1
79356;SHT31;68825;51.978;5.654;2023-11-21T03:42:39;10.9;76.2
79356;SHT31;68825;51.978;5.654;2023-11-21T03:45:09;10.9;76.1
79356;SHT31;68825;51.978;5.654;2023-11-21T03:47:38;10.9;76.4
79356;SHT31;68825;51.978;5.654;2023-11-21T03:50:08;10.9;76.4
79356;SHT31;68825;51.978;5.654;2023-11-21T03:52:37;11.0;76.7
79356;SHT31;68825;51.978;5.654;2023-11-21T03:55:07;11.0;76.4
79356;SHT31;68825;51.978;5.654;2023-11-21T03:57:36;11.0;76.4
79356;SHT31;68825;51.978;5.654;2023-11-21T04:00:06;11.0;76.3
79356;SHT31;68825;51.978;5.654;2023-11-21T04:02:35;11.0;76.4
79356;SHT31;68825;51.978;5.654;2023-11-21T04:05:04;11.1;76.4
79356;SHT31;68825;51.978;5.654;2023-11-21T04:07:34;11.1;76.5
79356;SHT31;68825;51.978;5.654;2023-11-21T04:10:06;11.1;76.8
79356;SHT31;68825;51.978;5.654;2023-11-21T04:12:39;11.1;76.5
79356;SHT31;68825;51.978;5.654;2023-11-21T04:15:09;11.2;76.3
79356;SHT31;68825;51.978;5.654;2023-11-21T04:17:40;11.2;76.3
79356;SHT31;68825;51.978;5.654;2023-11-21T04:20:09;11.2;76.2
79356;SHT31;68825;51.978;5.654;2023-11-21T04:22:40;11.2;76.2
79356;SHT31;68825;51.978;5.654;2023-11-21T04:25:11;11.3;76.6
79356;SHT31;68825;51.978;5.654;2023-11-21T04:27:43;11.3;76.3
79356;SHT31;68825;51.978;5.654;2023-11-21T04:30:13;11.3;76.3
79356;SHT31;68825;51.978;5.654;2023-11-21T04:32:43;11.3;76.1
79356;SHT31;68825;51.978;5.654;2023-11-21T04:35:12;11.4;76.2
79356;SHT31;68825;51.978;5.654;2023-11-21T04:37:42;11.4;76.2
79356;SHT31;68825;51.978;5.654;2023-11-21T04:40:12;11.4;76.0
79356;SHT31;68825;51.978;5.654;2023-11-21T04:42:41;11.4;75.9
79356;SHT31;68825;51.978;5.654;2023-11-21T04:45:11;11.4;75.8
79356;SHT31;68825;51.978;5.654;2023-11-21T04:47:40;11.4;76.2
79356;SHT31;68825;51.978;5.654;2023-11-21T04:50:11;11.4;76.0
79356;SHT31;68825;51.978;5.654;2023-11-21T04:52:42;11.5;76.0
79356;SHT31;68825;51.978;5.654;2023-11-21T04:55:11;11.5;76.2
79356;SHT31;68825;51.978;5.654;2023-11-21T04:57:40;11.5;76.4
79356;SHT31;68825;51.978;5.654;2023-11-21T05:00:13;11.5;76.6
79356;SHT31;68825;51.978;5.654;2023-11-21T05:02:43;11.5;76.4
79356;SHT31;68825;51.978;5.654;2023-11-21T05:05:13;11.5;76.2
79356;SHT31;68825;51.978;5.654;2023-11-21T05:07:45;11.6;76.2
79356;SHT31;68825;51.978;5.654;2023-11-21T05:10:15;11.6;76.3
79356;SHT31;68825;51.978;5.654;2023-11-21T05:12:44;11.6;76.4
79356;SHT31;68825;51.978;5.654;2023-11-21T05:15:14;11.6;76.4
79356;SHT31;68825;51.978;5.654;2023-11-21T05:17:46;11.6;76.4
79356;SHT31;68825;51.978;5.654;2023-11-21T05:20:16;11.6;76.4
79356;SHT31;68825;51.978;5.654;2023-11-21T05:22:48;11.6;76.4
79356;SHT31;68825;51.978;5.654;2023-11-21T05:25:16;11.6;76.5
79356;SHT31;68825;51.978;5.654;2023-11-21T05:27:45;11.6;76.4
79356;SHT31;68825;51.978;5.654;2023-11-21T05:30:16;11.6;76.5
79356;SHT31;68825;51.978;5.654;2023-11-21T05:32:44;11.6;76.7
79356;SHT31;68825;51.978;5.654;2023-11-21T05:35:13;11.6;76.8
79356;SHT31;68825;51.978;5.654;2023-11-21T05:37:42;11.6;76.9
79356;SHT31;68825;51.978;5.654;2023-11-21T05:40:12;11.6;76.9
79356;SHT31;68825;51.978;5.654;2023-11-21T05:42:41;11.6;76.9
79356;SHT31;68825;51.978;5.654;2023-11-21T05:45:10;11.6;76.8
79356;SHT31;68825;51.978;5.654;2023-11-21T05:47:41;11.7;77.0
79356;SHT31;68825;51.978;5.654;2023-11-21T05:50:13;11.7;77.2
79356;SHT31;68825;51.978;5.654;2023-11-21T05:52:44;11.7;77.0
79356;SHT31;68825;51.978;5.654;2023-11-21T05:55:14;11.7;77.0
79356;SHT31;68825;51.978;5.654;2023-11-21T05:57:44;11.7;77.0
79356;SHT31;68825;51.978;5.654;2023-11-21T06:00:14;11.7;77.0
79356;SHT31;68825;51.978;5.654;2023-11-21T06:02:46;11.7;77.0
79356;SHT31;68825;51.978;5.654;2023-11-21T06:05:17;11.7;76.8
79356;SHT31;68825;51.978;5.654;2023-11-21T06:07:47;11.7;77.0
79356;SHT31;68825;51.978;5.654;2023-11-21T06:10:16;11.7;77.1
79356;SHT31;68825;51.978;5.654;2023-11-21T06:12:46;11.7;77.1
79356;SHT31;68825;51.978;5.654;2023-11-21T06:15:15;11.7;77.1
79356;SHT31;68825;51.978;5.654;2023-11-21T06:17:47;11.7;77.1
79356;SHT31;68825;51.978;5.654;2023-11-21T06:20:19;11.8;77.1
79356;SHT31;68825;51.978;5.654;2023-11-21T06:22:49;11.8;77.0
79356;SHT31;68825;51.978;5.654;2023-11-21T06:25:18;11.8;76.9
79356;SHT31;68825;51.978;5.654;2023-11-21T06:27:48;11.8;77.2
79356;SHT31;68825;51.978;5.654;2023-11-21T06:30:18;11.8;77.2
79356;SHT31;68825;51.978;5.654;2023-11-21T06:32:47;11.8;77.1
79356;SHT31;68825;51.978;5.654;2023-11-21T06:35:17;11.8;77.4
79356;SHT31;68825;51.978;5.654;2023-11-21T06:37:46;11.8;77.4
79356;SHT31;68825;51.978;5.654;2023-11-21T06:40:16;11.8;77.2
79356;SHT31;68825;51.978;5.654;2023-11-21T06:42:45;11.8;77.4
79356;SHT31;68825;51.978;5.654;2023-11-21T06:45:13;11.8;77.4
79356;SHT31;68825;51.978;5.654;2023-11-21T06:47:42;11.8;77.5
79356;SHT31;68825;51.978;5.654;2023-11-21T06:50:11;11.8;77.7
79356;SHT31;68825;51.978;5.654;2023-11-21T06:52:40;11.8;77.6
79356;SHT31;68825;51.978;5.654;2023-11-21T06:55:09;11.8;77.4
79356;SHT31;68825;51.978;5.654;2023-11-21T06:57:40;11.8;77.5
79356;SHT31;68825;51.978;5.654;2023-11-21T07:00:10;11.8;77.5
79356;SHT31;68825;51.978;5.654;2023-11-21T07:02:39;11.8;77.4
79356;SHT31;68825;51.978;5.654;2023-11-21T07:05:08;11.8;77.5
79356;SHT31;68825;51.978;5.654;2023-11-21T07:07:37;11.8;77.4
79356;SHT31;68825;51.978;5.654;2023-11-21T07:10:06;11.8;77.6
79356;SHT31;68825;51.978;5.654;2023-11-21T07:12:36;11.8;77.7
79356;SHT31;68825;51.978;5.654;2023-11-21T07:15:05;11.8;77.7
79356;SHT31;68825;51.978;5.654;2023-11-21T07:17:35;11.8;77.9
79356;SHT31;68825;51.978;5.654;2023-11-21T07:20:05;11.9;78.0
79356;SHT31;68825;51.978;5.654;2023-11-21T07:22:34;11.9;77.9
79356;SHT31;68825;51.978;5.654;2023-11-21T07:25:03;11.9;77.8
79356;SHT31;68825;51.978;5.654;2023-11-21T07:27:33;11.9;77.8
79356;SHT31;68825;51.978;5.654;2023-11-21T07:30:04;11.9;77.7
79356;SHT31;68825;51.978;5.654;2023-11-21T07:32:34;11.9;77.8
79356;SHT31;68825;51.978;5.654;2023-11-21T07:35:10;11.9;77.8
79356;SHT31;68825;51.978;5.654;2023-11-21T07:37:43;12.0;77.7
79356;SHT31;68825;51.978;5.654;2023-11-21T07:40:15;12.0;77.7
79356;SHT31;68825;51.978;5.654;2023-11-21T07:42:44;12.0;77.7
79356;SHT31;68825;51.978;5.654;2023-11-21T07:45:12;12.0;77.5
79356;SHT31;68825;51.978;5.654;2023-11-21T07:47:41;12.1;77.5
79356;SHT31;68825;51.978;5.654;2023-11-21T07:50:10;12.1;77.6
79356;SHT31;68825;51.978;5.654;2023-11-21T07:52:41;12.1;77.6
79356;SHT31;68825;51.978;5.654;2023-11-21T07:55:10;12.1;77.7
79356;SHT31;68825;51.978;5.654;2023-11-21T07:57:38;12.1;77.8
79356;SHT31;68825;51.978;5.654;2023-11-21T08:00:08;12.1;77.7
79356;SHT31;68825;51.978;5.654;2023-11-21T08:02:38;12.2;77.9
79356;SHT31;68825;51.978;5.654;2023-11-21T08:05:08;12.2;77.8
79356;SHT31;68825;51.978;5.654;2023-11-21T08:07:37;12.2;77.9
79356;SHT31;68825;51.978;5.654;2023-11-21T08:10:06;12.2;77.9
79356;SHT31;68825;51.978;5.654;2023-11-21T08:12:36;12.2;77.9
79356;SHT31;68825;51.978;5.654;2023-11-21T08:15:07;12.2;78.1
79356;SHT31;68825;51.978;5.654;2023-11-21T08:17:38;12.2;78.2
79356;SHT31;68825;51.978;5.654;2023-11-21T08:20:07;12.3;77.7
79356;SHT31;68825;51.978;5.654;2023-11-21T08:22:37;12.3;77.9
79356;SHT31;68825;51.978;5.654;2023-11-21T08:25:08;12.3;77.9
79356;SHT31;68825;51.978;5.654;2023-11-21T08:27:38;12.3;77.9
79356;SHT31;68825;51.978;5.654;2023-11-21T08:30:08;12.3;77.9
79356;SHT31;68825;51.978;5.654;2023-11-21T08:32:36;12.3;78.1
79356;SHT31;68825;51.978;5.654;2023-11-21T08:35:07;12.3;78.0
79356;SHT31;68825;51.978;5.654;2023-11-21T08:37:36;12.3;78.0
79356;SHT31;68825;51.978;5.654;2023-11-21T08:40:06;12.3;78.2
79356;SHT31;68825;51.978;5.654;2023-11-21T08:42:36;12.3;78.4
79356;SHT31;68825;51.978;5.654;2023-11-21T08:45:05;12.4;78.8
79356;SHT31;68825;51.978;5.654;2023-11-21T08:47:37;12.4;78.8
79356;SHT31;68825;51.978;5.654;2023-11-21T08:50:09;12.4;78.6
79356;SHT31;68825;51.978;5.654;2023-11-21T08:52:38;12.4;78.3
79356;SHT31;68825;51.978;5.654;2023-11-21T08:55:08;12.4;78.3
79356;SHT31;68825;51.978;5.654;2023-11-21T08:57:39;12.4;78.5
79356;SHT31;68825;51.978;5.654;2023-11-21T09:00:09;12.5;78.1
79356;SHT31;68825;51.978;5.654;2023-11-21T09:02:42;12.5;77.9
79356;SHT31;68825;51.978;5.654;2023-11-21T09:05:12;12.5;77.8
79356;SHT31;68825;51.978;5.654;2023-11-21T09:07:43;12.5;77.9
79356;SHT31;68825;51.978;5.654;2023-11-21T09:10:13;12.5;77.7
79356;SHT31;68825;51.978;5.654;2023-11-21T09:12:41;12.5;77.6
79356;SHT31;68825;51.978;5.654;2023-11-21T09:17:47;12.5;77.9
79356;SHT31;68825;51.978;5.654;2023-11-21T09:20:17;12.5;78.3
79356;SHT31;68825;51.978;5.654;2023-11-21T09:22:49;12.5;78.3
79356;SHT31;68825;51.978;5.654;2023-11-21T09:25:19;12.5;78.3
79356;SHT31;68825;51.978;5.654;2023-11-21T09:27:49;12.5;78.4
79356;SHT31;68825;51.978;5.654;2023-11-21T09:30:17;12.5;78.6
79356;SHT31;68825;51.978;5.654;2023-11-21T09:32:48;12.5;78.9
79356;SHT31;68825;51.978;5.654;2023-11-21T09:35:19;12.5;79.0
79356;SHT31;68825;51.978;5.654;2023-11-21T09:37:47;12.5;79.2
79356;SHT31;68825;51.978;5.654;2023-11-21T09:40:21;12.5;79.4
79356;SHT31;68825;51.978;5.654;2023-11-21T09:42:54;12.5;79.5
79356;SHT31;68825;51.978;5.654;2023-11-21T09:45:25;12.4;79.8
79356;SHT31;68825;51.978;5.654;2023-11-21T09:47:56;12.4;80.3
79356;SHT31;68825;51.978;5.654;2023-11-21T09:50:28;12.5;80.5
79356;SHT31;68825;51.978;5.654;2023-11-21T09:53:08;12.5;80.7
79356;SHT31;68825;51.978;5.654;2023-11-21T09:55:43;12.5;81.0
79356;SHT31;68825;51.978;5.654;2023-11-21T09:58:13;12.5;81.3
79356;SHT31;68825;51.978;5.654;2023-11-21T10:00:44;12.6;81.1
79356;SHT31;68825;51.978;5.654;2023-11-21T10:03:14;12.6;81.2
79356;SHT31;68825;51.978;5.654;2023-11-21T10:05:44;12.6;81.2
79356;SHT31;68825;51.978;5.654;2023-11-21T10:08:14;12.6;81.6
79356;SHT31;68825;51.978;5.654;2023-11-21T10:10:46;12.7;81.4
79356;SHT31;68825;51.978;5.654;2023-11-21T10:13:18;12.7;80.7
79356;SHT31;68825;51.978;5.654;2023-11-21T10:15:50;12.7;80.3
79356;SHT31;68825;51.978;5.654;2023-11-21T10:18:19;12.7;80.6
79356;SHT31;68825;51.978;5.654;2023-11-21T10:20:51;12.7;80.2
79356;SHT31;68825;51.978;5.654;2023-11-21T10:23:22;12.7;79.9
79356;SHT31;68825;51.978;5.654;2023-11-21T10:25:52;12.7;79.9
79356;SHT31;68825;51.978;5.654;2023-11-21T10:28:21;12.7;80.0
79356;SHT31;68825;51.978;5.654;2023-11-21T10:30:52;12.8;79.8
79356;SHT31;68825;51.978;5.654;2023-11-21T10:33:30;12.8;79.8
79356;SHT31;68825;51.978;5.654;2023-11-21T10:35:59;12.8;79.6
79356;SHT31;68825;51.978;5.654;2023-11-21T10:38:33;12.8;79.7
79356;SHT31;68825;51.978;5.654;2023-11-21T10:41:10;12.8;79.7
79356;SHT31;68825;51.978;5.654;2023-11-21T10:43:41;12.8;79.5
79356;SHT31;68825;51.978;5.654;2023-11-21T10:46:12;12.8;79.4
79356;SHT31;68825;51.978;5.654;2023-11-21T10:48:44;12.8;78.9
79356;SHT31;68825;51.978;5.654;2023-11-21T10:51:13;12.8;79.2
79356;SHT31;68825;51.978;5.654;2023-11-21T10:53:42;12.8;79.6
79356;SHT31;68825;51.978;5.654;2023-11-21T10:56:14;12.8;79.4
79356;SHT31;68825;51.978;5.654;2023-11-21T10:58:46;12.8;79.8
79356;SHT31;68825;51.978;5.654;2023-11-21T11:01:17;12.7;79.2
79356;SHT31;68825;51.978;5.654;2023-11-21T11:03:48;12.7;79.3
79356;SHT31;68825;51.978;5.654;2023-11-21T11:06:21;12.7;80.0
79356;SHT31;68825;51.978;5.654;2023-11-21T11:08:55;12.7;79.7
79356;SHT31;68825;51.978;5.654;2023-11-21T11:11:26;12.7;79.4
79356;SHT31;68825;51.978;5.654;2023-11-21T11:13:55;12.7;79.2
79356;SHT31;68825;51.978;5.654;2023-11-21T11:16:27;12.7;78.9
79356;SHT31;68825;51.978;5.654;2023-11-21T11:18:56;12.7;78.9
79356;SHT31;68825;51.978;5.654;2023-11-21T11:21:36;12.7;78.9
79356;SHT31;68825;51.978;5.654;2023-11-21T11:24:27;12.7;78.7
79356;SHT31;68825;51.978;5.654;2023-11-21T11:27:10;12.6;78.9
79356;SHT31;68825;51.978;5.654;2023-11-21T11:29:51;12.6;78.7
79356;SHT31;68825;51.978;5.654;2023-11-21T11:32:34;12.6;78.8
79356;SHT31;68825;51.978;5.654;2023-11-21T11:35:11;12.6;79.3
79356;SHT31;68825;51.978;5.654;2023-11-21T11:37:43;12.6;79.4
79356;SHT31;68825;51.978;5.654;2023-11-21T11:40:12;12.6;79.4
79356;SHT31;68825;51.978;5.654;2023-11-21T11:43:00;12.7;79.4
79356;SHT31;68825;51.978;5.654;2023-11-21T11:45:34;12.7;79.4
79356;SHT31;68825;51.978;5.654;2023-11-21T11:48:10;12.7;78.9
79356;SHT31;68825;51.978;5.654;2023-11-21T11:50:42;12.7;78.7
79356;SHT31;68825;51.978;5.654;2023-11-21T11:53:15;12.7;79.2
79356;SHT31;68825;51.978;5.654;2023-11-21T11:55:46;12.7;79.3
79356;SHT31;68825;51.978;5.654;2023-11-21T11:58:15;12.7;79.7
79356;SHT31;68825;51.978;5.654;2023-11-21T12:00:43;12.6;79.9
79356;SHT31;68825;51.978;5.654;2023-11-21T12:03:16;12.6;79.8
79356;SHT31;68825;51.978;5.654;2023-11-21T12:05:46;12.6;79.8
79356;SHT31;68825;51.978;5.654;2023-11-21T12:08:16;12.6;80.0
79356;SHT31;68825;51.978;5.654;2023-11-21T12:10:44;12.7;80.2
79356;SHT31;68825;51.978;5.654;2023-11-21T12:13:15;12.7;80.5
79356;SHT31;68825;51.978;5.654;2023-11-21T12:15:47;12.7;80.6
79356;SHT31;68825;51.978;5.654;2023-11-21T12:18:17;12.8;79.7
79356;SHT31;68825;51.978;5.654;2023-11-21T12:20:47;12.8;79.2
79356;SHT31;68825;51.978;5.654;2023-11-21T12:23:17;12.8;79.3
79356;SHT31;68825;51.978;5.654;2023-11-21T12:25:47;12.9;79.4
79356;SHT31;68825;51.978;5.654;2023-11-21T12:28:17;12.9;78.8
79356;SHT31;68825;51.978;5.654;2023-11-21T12:30:46;12.9;78.5
79356;SHT31;68825;51.978;5.654;2023-11-21T12:33:15;12.9;78.6
79356;SHT31;68825;51.978;5.654;2023-11-21T12:35:45;12.9;78.5
79356;SHT31;68825;51.978;5.654;2023-11-21T12:38:13;12.9;78.4
79356;SHT31;68825;51.978;5.654;2023-11-21T12:40:46;12.9;78.4
79356;SHT31;68825;51.978;5.654;2023-11-21T12:43:14;12.8;78.6
79356;SHT31;68825;51.978;5.654;2023-11-21T12:45:44;12.8;78.9
79356;SHT31;68825;51.978;5.654;2023-11-21T12:48:15;12.8;78.7
79356;SHT31;68825;51.978;5.654;2023-11-21T12:50:48;12.8;78.4
79356;SHT31;68825;51.978;5.654;2023-11-21T12:53:19;12.8;78.8
79356;SHT31;68825;51.978;5.654;2023-11-21T12:55:48;12.8;78.4
79356;SHT31;68825;51.978;5.654;2023-11-21T12:58:20;12.8;78.1
79356;SHT31;68825;51.978;5.654;2023-11-21T13:00:49;12.8;77.6
79356;SHT31;68825;51.978;5.654;2023-11-21T13:03:26;12.8;77.7
79356;SHT31;68825;51.978;5.654;2023-11-21T13:05:57;12.7;77.9
79356;SHT31;68825;51.978;5.654;2023-11-21T13:08:27;12.7;78.5
79356;SHT31;68825;51.978;5.654;2023-11-21T13:10:57;12.7;78.6
79356;SHT31;68825;51.978;5.654;2023-11-21T13:13:28;12.7;78.1
79356;SHT31;68825;51.978;5.654;2023-11-21T13:16:00;12.6;78.3
79356;SHT31;68825;51.978;5.654;2023-11-21T13:18:31;12.6;77.9
79356;SHT31;68825;51.978;5.654;2023-11-21T13:21:02;12.6;78.7
79356;SHT31;68825;51.978;5.654;2023-11-21T13:23:36;12.6;79.1
79356;SHT31;68825;51.978;5.654;2023-11-21T13:26:05;12.6;79.0
79356;SHT31;68825;51.978;5.654;2023-11-21T13:28:35;12.7;77.4
79356;SHT31;68825;51.978;5.654;2023-11-21T13:31:05;12.7;77.4
79356;SHT31;68825;51.978;5.654;2023-11-21T13:33:42;12.7;78.0
79356;SHT31;68825;51.978;5.654;2023-11-21T13:36:16;12.7;77.8
79356;SHT31;68825;51.978;5.654;2023-11-21T13:38:48;12.7;78.1
79356;SHT31;68825;51.978;5.654;2023-11-21T13:41:19;12.7;77.9
79356;SHT31;68825;51.978;5.654;2023-11-21T13:43:54;12.7;77.6
79356;SHT31;68825;51.978;5.654;2023-11-21T13:46:28;12.8;77.7
79356;SHT31;68825;51.978;5.654;2023-11-21T13:49:01;12.8;78.0
79356;SHT31;68825;51.978;5.654;2023-11-21T13:51:35;12.8;77.2
79356;SHT31;68825;51.978;5.654;2023-11-21T13:54:08;12.8;76.9
79356;SHT31;68825;51.978;5.654;2023-11-21T13:56:37;12.8;77.4
79356;SHT31;68825;51.978;5.654;2023-11-21T13:59:07;12.8;77.0
79356;SHT31;68825;51.978;5.654;2023-11-21T14:01:42;12.8;77.0
79356;SHT31;68825;51.978;5.654;2023-11-21T14:04:21;12.8;77.0
79356;SHT31;68825;51.978;5.654;2023-11-21T14:06:58;12.9;77.0
79356;SHT31;68825;51.978;5.654;2023-11-21T14:09:32;12.9;76.8
79356;SHT31;68825;51.978;5.654;2023-11-21T14:12:08;12.9;77.0
79356;SHT31;68825;51.978;5.654;2023-11-21T14:14:40;12.9;76.3
79356;SHT31;68825;51.978;5.654;2023-11-21T14:17:10;12.9;76.0
79356;SHT31;68825;51.978;5.654;2023-11-21T14:19:39;12.8;75.3
79356;SHT31;68825;51.978;5.654;2023-11-21T14:22:09;12.8;75.2
79356;SHT31;68825;51.978;5.654;2023-11-21T14:24:38;12.7;75.9
79356;SHT31;68825;51.978;5.654;2023-11-21T14:27:10;12.7;75.5
79356;SHT31;68825;51.978;5.654;2023-11-21T14:29:40;12.6;75.7
79356;SHT31;68825;51.978;5.654;2023-11-21T14:32:10;12.5;75.7
79356;SHT31;68825;51.978;5.654;2023-11-21T14:34:40;12.5;76.4
79356;SHT31;68825;51.978;5.654;2023-11-21T14:37:11;12.4;75.7
79356;SHT31;68825;51.978;5.654;2023-11-21T14:39:40;12.4;75.9
79356;SHT31;68825;51.978;5.654;2023-11-21T14:42:12;12.3;76.5
79356;SHT31;68825;51.978;5.654;2023-11-21T14:44:41;12.3;77.1
79356;SHT31;68825;51.978;5.654;2023-11-21T14:47:10;12.3;76.9
79356;SHT31;68825;51.978;5.654;2023-11-21T14:49:43;12.3;76.9
79356;SHT31;68825;51.978;5.654;2023-11-21T14:52:23;12.3;77.0
79356;SHT31;68825;51.978;5.654;2023-11-21T14:55:01;12.3;76.8
79356;SHT31;68825;51.978;5.654;2023-11-21T14:57:52;12.2;77.2
79356;SHT31;68825;51.978;5.654;2023-11-21T15:00:21;12.2;77.7
79356;SHT31;68825;51.978;5.654;2023-11-21T15:03:06;12.2;77.7
79356;SHT31;68825;51.978;5.654;2023-11-21T15:05:36;12.1;77.5
79356;SHT31;68825;51.978;5.654;2023-11-21T15:08:06;12.1;77.0
79356;SHT31;68825;51.978;5.654;2023-11-21T15:10:44;12.0;76.9
79356;SHT31;68825;51.978;5.654;2023-11-21T15:13:19;12.0;77.1
79356;SHT31;68825;51.978;5.654;2023-11-21T15:15:50;11.9;77.3
79356;SHT31;68825;51.978;5.654;2023-11-21T15:18:20;11.9;77.3
79356;SHT31;68825;51.978;5.654;2023-11-21T15:20:50;11.8;77.9
79356;SHT31;68825;51.978;5.654;2023-11-21T15:23:19;11.8;77.2
79356;SHT31;68825;51.978;5.654;2023-11-21T15:25:48;11.8;75.9
79356;SHT31;68825;51.978;5.654;2023-11-21T15:28:16;11.8;75.1
79356;SHT31;68825;51.978;5.654;2023-11-21T15:30:46;11.8;75.0
79356;SHT31;68825;51.978;5.654;2023-11-21T15:33:17;11.7;74.9
79356;SHT31;68825;51.978;5.654;2023-11-21T15:35:46;11.7;74.2
79356;SHT31;68825;51.978;5.654;2023-11-21T15:38:15;11.6;73.5
79356;SHT31;68825;51.978;5.654;2023-11-21T15:40:43;11.6;73.2
79356;SHT31;68825;51.978;5.654;2023-11-21T15:43:14;11.5;73.7
79356;SHT31;68825;51.978;5.654;2023-11-21T15:45:47;11.5;73.7
79356;SHT31;68825;51.978;5.654;2023-11-21T15:48:17;11.5;73.2
79356;SHT31;68825;51.978;5.654;2023-11-21T15:50:46;11.4;73.1
79356;SHT31;68825;51.978;5.654;2023-11-21T15:53:17;11.4;73.2
79356;SHT31;68825;51.978;5.654;2023-11-21T15:55:45;11.4;73.8
79356;SHT31;68825;51.978;5.654;2023-11-21T15:58:14;11.4;72.6
79356;SHT31;68825;51.978;5.654;2023-11-21T16:00:42;11.4;72.8
79356;SHT31;68825;51.978;5.654;2023-11-21T16:03:12;11.3;71.9
79356;SHT31;68825;51.978;5.654;2023-11-21T16:05:41;11.3;72.2
79356;SHT31;68825;51.978;5.654;2023-11-21T16:08:10;11.3;71.4
79356;SHT31;68825;51.978;5.654;2023-11-21T16:10:39;11.3;70.6
79356;SHT31;68825;51.978;5.654;2023-11-21T16:13:07;11.2;70.6
79356;SHT31;68825;51.978;5.654;2023-11-21T16:15:36;11.2;70.6
79356;SHT31;68825;51.978;5.654;2023-11-21T16:18:05;11.1;70.1
79356;SHT31;68825;51.978;5.654;2023-11-21T16:20:34;11.1;70.0
79356;SHT31;68825;51.978;5.654;2023-11-21T16:23:03;11.0;70.0
79356;SHT31;68825;51.978;5.654;2023-11-21T16:25:34;11.0;70.3